createdAt,value
2017-07-03T00:02:05.087Z,14.97
2017-07-03T00:04:32.901Z,14.96
2017-07-03T00:07:00.690Z,15.01
2017-07-03T00:09:28.455Z,15.00
2017-07-03T00:11:56.287Z,15.00
2017-07-03T00:14:24.092Z,14.94
2017-07-03T00:16:51.950Z,14.92
2017-07-03T00:19:19.712Z,15.01
2017-07-03T00:21:47.542Z,14.97
2017-07-03T00:24:15.390Z,14.98
2017-07-03T00:26:43.159Z,14.95
2017-07-03T00:29:10.920Z,14.98
2017-07-03T00:31:38.751Z,15.01
2017-07-03T00:34:06.519Z,14.98
2017-07-03T00:36:34.350Z,14.89
2017-07-03T00:39:02.187Z,14.92
2017-07-03T00:41:30.032Z,14.94
2017-07-03T00:43:57.805Z,14.98
2017-07-03T00:46:25.666Z,14.99
2017-07-03T00:48:53.492Z,15.01
2017-07-03T00:51:21.336Z,14.94
2017-07-03T00:53:49.173Z,14.97
2017-07-03T00:56:16.973Z,14.98
2017-07-03T00:58:44.807Z,14.95
2017-07-03T01:01:12.607Z,15.07
2017-07-03T01:03:40.427Z,15.03
2017-07-03T01:06:08.273Z,15.00
2017-07-03T01:08:36.101Z,15.02
2017-07-03T01:11:03.919Z,14.92
2017-07-03T01:13:31.678Z,14.99
2017-07-03T01:15:59.548Z,14.94
2017-07-03T01:18:27.363Z,14.97
2017-07-03T01:20:55.111Z,14.88
2017-07-03T01:23:22.943Z,14.90
2017-07-03T01:25:50.888Z,14.90
2017-07-03T01:28:18.724Z,14.92
2017-07-03T01:30:46.487Z,14.91
2017-07-03T01:33:14.345Z,14.84
2017-07-03T01:35:42.170Z,14.91
2017-07-03T01:38:10.000Z,14.92
2017-07-03T01:40:37.864Z,14.88
2017-07-03T01:43:05.670Z,14.88
2017-07-03T01:45:33.479Z,14.87
2017-07-03T01:48:01.284Z,14.88
2017-07-03T01:50:29.117Z,14.88
2017-07-03T01:52:57.034Z,14.84
2017-07-03T01:55:24.857Z,14.93
2017-07-03T01:57:52.612Z,15.01
2017-07-03T02:00:20.375Z,14.97
2017-07-03T02:02:48.321Z,14.88
2017-07-03T02:05:17.062Z,14.89
2017-07-03T02:07:44.904Z,14.85
2017-07-03T02:10:12.730Z,14.84
2017-07-03T02:12:40.527Z,14.72
2017-07-03T02:15:08.366Z,14.73
2017-07-03T02:17:36.209Z,14.87
2017-07-03T02:20:04.077Z,14.90
2017-07-03T02:22:31.878Z,14.80
2017-07-03T02:24:59.713Z,14.81
2017-07-03T02:27:27.635Z,14.78
2017-07-03T02:29:55.432Z,14.79
2017-07-03T02:32:23.272Z,14.82
2017-07-03T02:34:51.030Z,14.77
2017-07-03T02:37:18.829Z,14.81
2017-07-03T02:39:46.834Z,14.78
2017-07-03T02:42:14.668Z,14.76
2017-07-03T02:44:42.511Z,14.75
2017-07-03T02:47:10.334Z,14.79
2017-07-03T02:49:38.095Z,14.81
2017-07-03T02:52:06.024Z,14.80
2017-07-03T02:54:33.797Z,14.69
2017-07-03T02:57:02.608Z,14.76
2017-07-03T02:59:30.452Z,14.77
2017-07-03T03:01:58.296Z,14.70
2017-07-03T03:04:26.131Z,14.73
2017-07-03T03:06:54.003Z,14.68
2017-07-03T03:09:21.768Z,14.59
2017-07-03T03:11:49.535Z,14.55
2017-07-03T03:14:17.409Z,14.64
2017-07-03T03:16:45.273Z,14.65
2017-07-03T03:19:13.075Z,14.58
2017-07-03T03:21:40.944Z,14.52
2017-07-03T03:24:08.694Z,14.48
2017-07-03T03:26:36.463Z,14.45
2017-07-03T03:29:04.287Z,14.51
2017-07-03T03:31:32.101Z,14.58
2017-07-03T03:34:00.050Z,14.58
2017-07-03T03:36:27.841Z,14.54
2017-07-03T03:38:55.687Z,14.56
2017-07-03T03:41:23.502Z,14.54
2017-07-03T03:43:51.333Z,14.56
2017-07-03T03:46:19.142Z,14.58
2017-07-03T03:48:47.009Z,14.58
2017-07-03T03:51:14.786Z,14.49
2017-07-03T03:53:42.528Z,14.50
2017-07-03T03:56:10.371Z,14.58
2017-07-03T03:58:38.162Z,14.52
2017-07-03T04:01:05.924Z,14.53
2017-07-03T04:03:34.543Z,14.60
2017-07-03T04:06:02.297Z,14.57
2017-07-03T04:08:30.064Z,14.63
2017-07-03T04:10:57.928Z,14.51
2017-07-03T04:13:25.728Z,14.53
2017-07-03T04:15:53.565Z,14.64
2017-07-03T04:18:21.381Z,14.60
2017-07-03T04:20:49.126Z,14.63
2017-07-03T04:23:16.957Z,14.67
2017-07-03T04:25:44.871Z,14.62
2017-07-03T04:28:12.651Z,14.66
2017-07-03T04:30:40.444Z,14.80
2017-07-03T04:33:08.258Z,14.70
2017-07-03T04:35:36.078Z,14.69
2017-07-03T04:38:03.943Z,14.78
2017-07-03T04:40:31.756Z,14.79
2017-07-03T04:42:59.555Z,14.85
2017-07-03T04:45:27.297Z,15.02
2017-07-03T04:47:55.226Z,15.06
2017-07-03T04:50:23.463Z,15.14
2017-07-03T04:52:51.277Z,15.03
2017-07-03T04:55:19.070Z,15.02
2017-07-03T04:57:46.830Z,15.06
2017-07-03T05:00:14.715Z,15.01
2017-07-03T05:02:42.469Z,15.06
2017-07-03T05:05:10.322Z,15.04
2017-07-03T05:07:38.109Z,15.18
2017-07-03T05:10:05.932Z,15.20
2017-07-03T05:12:33.833Z,15.26
2017-07-03T05:15:01.821Z,15.24
2017-07-03T05:17:29.936Z,15.28
2017-07-03T05:19:57.962Z,15.29
2017-07-03T05:22:26.074Z,15.18
2017-07-03T05:24:53.943Z,15.17
2017-07-03T05:27:21.976Z,15.13
2017-07-03T05:29:50.061Z,15.35
2017-07-03T05:32:18.119Z,15.27
2017-07-03T05:34:46.191Z,15.12
2017-07-03T05:37:14.130Z,15.17
2017-07-03T05:39:42.119Z,15.23
2017-07-03T05:42:10.445Z,15.22
2017-07-03T05:44:38.480Z,15.32
2017-07-03T05:47:06.555Z,15.30
2017-07-03T05:49:35.139Z,15.21
2017-07-03T05:52:03.331Z,15.01
2017-07-03T05:54:31.378Z,15.20
2017-07-03T05:56:59.244Z,15.18
2017-07-03T05:59:27.316Z,15.08
2017-07-03T06:01:55.327Z,15.21
2017-07-03T06:04:23.346Z,15.28
2017-07-03T06:06:51.214Z,15.45
2017-07-03T06:09:19.280Z,15.40
2017-07-03T06:11:47.267Z,15.43
2017-07-03T06:14:15.336Z,15.38
2017-07-03T06:16:43.607Z,15.57
2017-07-03T06:19:11.790Z,15.62
2017-07-03T06:21:39.862Z,15.67
2017-07-03T06:24:07.938Z,15.48
2017-07-03T06:26:36.149Z,15.44
2017-07-03T06:29:04.127Z,15.61
2017-07-03T06:31:32.151Z,15.58
2017-07-03T06:34:00.353Z,15.58
2017-07-03T06:36:28.370Z,15.66
2017-07-03T06:38:56.535Z,15.50
2017-07-03T06:41:24.640Z,15.50
2017-07-03T06:43:52.646Z,15.67
2017-07-03T06:46:20.663Z,15.72
2017-07-03T06:48:48.580Z,15.52
2017-07-03T06:51:16.597Z,15.40
2017-07-03T06:53:44.598Z,15.53
2017-07-03T06:56:12.504Z,15.48
2017-07-03T06:58:41.350Z,15.46
2017-07-03T07:01:09.423Z,15.42
2017-07-03T07:03:37.283Z,15.72
2017-07-03T07:06:05.360Z,15.82
2017-07-03T07:08:33.432Z,16.17
2017-07-03T07:11:01.412Z,16.00
2017-07-03T07:13:29.455Z,16.12
2017-07-03T07:15:58.271Z,16.15
2017-07-03T07:18:26.311Z,16.14
2017-07-03T07:20:54.303Z,16.25
2017-07-03T07:23:22.248Z,16.17
2017-07-03T07:25:50.452Z,16.05
2017-07-03T07:28:18.709Z,16.06
2017-07-03T07:30:46.613Z,16.11
2017-07-03T07:33:14.567Z,16.04
2017-07-03T07:35:42.531Z,16.17
2017-07-03T07:38:10.434Z,16.30
2017-07-03T07:40:38.366Z,16.37
2017-07-03T07:43:06.408Z,16.62
2017-07-03T07:45:34.502Z,16.81
2017-07-03T07:48:02.347Z,16.83
2017-07-03T07:50:31.063Z,16.79
2017-07-03T07:52:59.106Z,16.89
2017-07-03T07:55:27.095Z,16.61
2017-07-03T07:57:54.940Z,16.58
2017-07-03T08:00:23.033Z,16.47
2017-07-03T08:02:51.117Z,16.47
2017-07-03T08:05:19.170Z,16.37
2017-07-03T08:07:47.232Z,16.42
2017-07-03T08:10:15.402Z,16.62
2017-07-03T08:12:43.234Z,16.57
2017-07-03T08:15:11.272Z,16.58
2017-07-03T08:17:39.350Z,16.69
2017-07-03T08:20:07.415Z,16.74
2017-07-03T08:22:35.462Z,17.17
2017-07-03T08:25:03.558Z,17.22
2017-07-03T08:27:31.596Z,17.31
2017-07-03T08:29:59.686Z,17.36
2017-07-03T08:32:28.503Z,17.29
2017-07-03T08:34:56.459Z,17.71
2017-07-03T08:37:24.494Z,17.85
2017-07-03T08:39:52.461Z,17.83
2017-07-03T08:42:20.449Z,17.91
2017-07-03T08:44:48.318Z,18.60
2017-07-03T08:47:16.522Z,18.84
2017-07-03T08:49:44.480Z,19.07
2017-07-03T08:52:12.654Z,19.36
2017-07-03T08:54:40.553Z,19.73
2017-07-03T08:57:08.591Z,20.08
2017-07-03T08:59:36.665Z,20.28
2017-07-03T09:02:04.693Z,20.11
2017-07-03T09:04:32.884Z,19.92
2017-07-03T09:07:01.700Z,19.30
2017-07-03T09:09:29.589Z,18.87
2017-07-03T09:11:58.536Z,19.18
2017-07-03T09:14:26.498Z,19.37
2017-07-03T09:16:54.473Z,18.90
2017-07-03T09:19:23.294Z,18.92
2017-07-03T09:21:51.562Z,19.15
2017-07-03T09:24:19.737Z,18.88
2017-07-03T09:26:47.811Z,18.85
2017-07-03T09:29:15.880Z,18.75
2017-07-03T09:31:43.750Z,18.98
2017-07-03T09:34:11.817Z,19.34
2017-07-03T09:36:39.959Z,18.96
2017-07-03T09:39:07.926Z,19.10
2017-07-03T09:41:36.033Z,19.03
2017-07-03T09:44:04.107Z,19.25
2017-07-03T09:46:31.951Z,19.22
2017-07-03T09:48:59.953Z,19.01
2017-07-03T09:51:28.014Z,18.61
2017-07-03T09:53:56.255Z,18.68
2017-07-03T09:56:24.248Z,18.71
2017-07-03T09:58:52.413Z,18.71
2017-07-03T10:01:20.478Z,18.47
2017-07-03T10:03:48.416Z,18.64
2017-07-03T10:06:16.222Z,18.79
2017-07-03T10:08:44.417Z,19.09
2017-07-03T10:11:12.281Z,18.95
2017-07-03T10:13:40.417Z,18.90
2017-07-03T10:16:08.350Z,18.94
2017-07-03T10:18:36.391Z,19.19
2017-07-03T10:21:04.468Z,19.39
2017-07-03T10:23:32.541Z,19.57
2017-07-03T10:26:00.610Z,19.55
2017-07-03T10:28:28.681Z,19.40
2017-07-03T10:30:56.755Z,19.59
2017-07-03T10:33:25.029Z,19.84
2017-07-03T10:35:53.174Z,19.97
2017-07-03T10:38:21.267Z,19.78
2017-07-03T10:40:49.332Z,19.99
2017-07-03T10:43:17.420Z,20.56
2017-07-03T10:45:45.492Z,20.94
2017-07-03T10:48:13.438Z,21.14
2017-07-03T10:50:41.429Z,21.03
2017-07-03T10:53:09.475Z,20.72
2017-07-03T10:55:38.217Z,20.84
2017-07-03T10:58:06.231Z,20.76
2017-07-03T11:00:34.297Z,21.14
2017-07-03T11:03:02.506Z,20.84
2017-07-03T11:05:30.459Z,20.88
2017-07-03T11:07:58.425Z,20.97
2017-07-03T11:10:26.490Z,20.70
2017-07-03T11:12:54.591Z,20.99
2017-07-03T11:15:22.662Z,21.30
2017-07-03T11:17:50.606Z,21.19
2017-07-03T11:20:18.602Z,21.30
2017-07-03T11:22:46.677Z,20.79
2017-07-03T11:25:14.743Z,20.65
2017-07-03T11:27:42.778Z,20.78
2017-07-03T11:30:10.889Z,20.74
2017-07-03T11:32:38.950Z,20.52
2017-07-03T11:35:06.875Z,20.12
2017-07-03T11:37:34.883Z,20.27
2017-07-03T11:40:02.997Z,20.18
2017-07-03T11:42:31.222Z,20.41
2017-07-03T11:44:59.526Z,20.32
2017-07-03T11:47:27.532Z,20.37
2017-07-03T11:49:55.323Z,20.30
2017-07-03T11:52:23.536Z,20.47
2017-07-03T11:54:51.404Z,20.65
2017-07-03T11:57:19.506Z,20.89
2017-07-03T11:59:47.445Z,21.32
2017-07-03T12:02:15.855Z,21.24
2017-07-03T12:04:44.102Z,21.76
2017-07-03T12:07:12.046Z,21.92
2017-07-03T12:09:40.210Z,21.24
2017-07-03T12:12:08.113Z,21.09
2017-07-03T12:14:36.167Z,20.89
2017-07-03T12:17:04.296Z,20.98
2017-07-03T12:19:32.304Z,20.98
2017-07-03T12:22:00.304Z,20.80
2017-07-03T12:24:28.342Z,20.81
2017-07-03T12:26:56.608Z,20.90
2017-07-03T12:29:24.918Z,20.97
2017-07-03T12:31:52.895Z,21.18
2017-07-03T12:34:21.034Z,21.59
2017-07-03T12:36:49.485Z,21.60
2017-07-03T12:39:18.456Z,21.46
2017-07-03T12:41:46.716Z,21.28
2017-07-03T12:44:15.031Z,21.59
2017-07-03T12:46:43.062Z,21.96
2017-07-03T12:49:11.605Z,22.00
2017-07-03T12:51:39.895Z,22.15
2017-07-03T12:54:08.196Z,22.18
2017-07-03T12:56:36.198Z,22.43
2017-07-03T12:59:04.889Z,22.41
2017-07-03T13:01:32.721Z,22.08
2017-07-03T13:04:00.620Z,21.84
2017-07-03T13:06:28.894Z,21.84
2017-07-03T13:08:57.237Z,21.94
2017-07-03T13:11:25.417Z,21.94
2017-07-03T13:13:53.352Z,21.93
2017-07-03T13:16:21.331Z,21.98
2017-07-03T13:18:49.400Z,21.97
2017-07-03T13:21:17.409Z,21.98
2017-07-03T13:23:45.459Z,22.22
2017-07-03T13:26:13.339Z,22.38
2017-07-03T13:28:41.419Z,22.19
2017-07-03T13:31:09.685Z,22.09
2017-07-03T13:33:37.756Z,22.28
2017-07-03T13:36:05.830Z,22.26
2017-07-03T13:38:34.295Z,22.30
2017-07-03T13:41:02.356Z,21.71
2017-07-03T13:43:30.355Z,21.94
2017-07-03T13:45:58.345Z,21.99
2017-07-03T13:48:26.263Z,22.05
2017-07-03T13:50:54.471Z,22.18
2017-07-03T13:53:22.539Z,22.06
2017-07-03T13:55:50.562Z,22.06
2017-07-03T13:58:18.510Z,21.80
2017-07-03T14:00:46.565Z,22.07
2017-07-03T14:03:14.618Z,22.24
2017-07-03T14:05:42.525Z,21.97
2017-07-03T14:08:10.602Z,21.94
2017-07-03T14:10:38.637Z,21.96
2017-07-03T14:13:06.910Z,21.89
2017-07-03T14:15:34.827Z,22.02
2017-07-03T14:18:02.846Z,21.73
2017-07-03T14:20:30.921Z,21.63
2017-07-03T14:22:58.820Z,21.60
2017-07-03T14:25:26.921Z,21.03
2017-07-03T14:27:54.931Z,20.67
2017-07-03T14:30:22.999Z,20.94
2017-07-03T14:32:51.349Z,21.00
2017-07-03T14:35:19.268Z,21.13
2017-07-03T14:37:47.085Z,20.76
2017-07-03T14:40:15.090Z,20.74
2017-07-03T14:42:42.993Z,20.60
2017-07-03T14:45:11.009Z,19.91
2017-07-03T14:47:39.138Z,19.76
2017-07-03T14:50:07.142Z,19.70
2017-07-03T14:52:35.214Z,19.33
2017-07-03T14:55:03.012Z,19.29
2017-07-03T14:57:30.885Z,19.41
2017-07-03T14:59:58.635Z,19.38
2017-07-03T15:02:27.302Z,19.41
2017-07-03T15:04:55.077Z,19.30
2017-07-03T15:07:22.917Z,19.15
2017-07-03T15:09:50.678Z,19.33
2017-07-03T15:12:18.799Z,19.29
2017-07-03T15:14:46.581Z,19.61
2017-07-03T15:17:14.444Z,19.58
2017-07-03T15:19:42.283Z,19.58
2017-07-03T15:22:10.170Z,19.48
2017-07-03T15:24:38.335Z,19.05
2017-07-03T15:27:06.281Z,19.11
2017-07-03T15:29:35.233Z,19.11
2017-07-03T15:32:03.025Z,19.15
2017-07-03T15:34:31.766Z,19.34
2017-07-03T15:36:59.554Z,19.58
2017-07-03T15:39:27.522Z,19.52
2017-07-03T15:41:55.692Z,19.77
2017-07-03T15:44:23.459Z,20.09
2017-07-03T15:46:51.280Z,20.19
2017-07-03T15:49:19.261Z,19.86
2017-07-03T15:51:47.329Z,19.66
2017-07-03T15:54:15.125Z,19.82
2017-07-03T15:56:43.270Z,20.43
2017-07-03T15:59:11.130Z,20.24
2017-07-03T16:01:40.880Z,19.97
2017-07-03T16:04:08.863Z,20.16
2017-07-03T16:06:36.690Z,19.69
2017-07-03T16:09:04.675Z,20.18
2017-07-03T16:11:32.559Z,20.42
2017-07-03T16:14:01.261Z,19.70
2017-07-03T16:16:29.133Z,19.54
2017-07-03T16:18:56.925Z,19.23
2017-07-03T16:21:24.680Z,19.08
2017-07-03T16:23:52.579Z,19.09
2017-07-03T16:26:20.384Z,18.83
2017-07-03T16:28:48.209Z,19.01
2017-07-03T16:31:16.127Z,19.10
2017-07-03T16:33:43.930Z,18.82
2017-07-03T16:36:11.838Z,18.65
2017-07-03T16:38:39.637Z,18.57
2017-07-03T16:41:07.448Z,18.61
2017-07-03T16:43:35.368Z,18.60
2017-07-03T16:48:37.227Z,18.64
2017-07-03T16:51:05.113Z,18.26
2017-07-03T16:53:32.868Z,18.11
2017-07-03T16:56:00.666Z,18.23
2017-07-03T16:58:28.513Z,18.23
2017-07-03T17:00:57.190Z,17.94
2017-07-03T17:03:25.024Z,17.89
2017-07-03T17:05:52.911Z,17.90
2017-07-03T17:08:20.699Z,18.40
2017-07-03T17:10:48.543Z,18.28
2017-07-03T17:13:16.517Z,18.09
2017-07-03T17:15:44.773Z,17.98
2017-07-03T17:18:12.734Z,17.86
2017-07-03T17:20:40.634Z,17.88
2017-07-03T17:23:08.494Z,18.04
2017-07-03T17:25:37.416Z,18.08
2017-07-03T17:28:06.170Z,18.22
2017-07-03T17:30:33.964Z,18.05
2017-07-03T17:33:01.829Z,17.90
2017-07-03T17:35:29.602Z,17.73
2017-07-03T17:37:57.511Z,17.53
2017-07-03T17:40:25.374Z,17.41
2017-07-03T17:42:53.266Z,17.26
2017-07-03T17:45:21.068Z,17.16
2017-07-03T17:47:49.657Z,17.09
2017-07-03T17:50:17.841Z,17.04
2017-07-03T17:52:49.459Z,17.06
2017-07-03T17:55:20.412Z,16.95
2017-07-03T17:57:51.457Z,16.90
2017-07-03T18:00:20.225Z,16.74
2017-07-03T18:02:49.905Z,16.63
2017-07-03T18:05:19.901Z,16.61
2017-07-03T18:07:49.821Z,16.49
2017-07-03T18:10:20.789Z,16.57
2017-07-03T18:12:49.717Z,16.51
2017-07-03T18:15:19.186Z,16.29
2017-07-03T18:17:50.307Z,16.44
2017-07-03T18:20:19.881Z,16.53
2017-07-03T18:22:48.876Z,16.39
2017-07-03T18:25:17.670Z,16.27
2017-07-03T18:27:45.642Z,16.17
2017-07-03T18:30:13.547Z,16.09
2017-07-03T18:32:41.773Z,16.00
2017-07-03T18:35:09.876Z,15.97
2017-07-03T18:37:38.152Z,15.89
2017-07-03T18:40:08.509Z,15.81
2017-07-03T18:42:37.082Z,15.83
2017-07-03T18:45:06.017Z,15.77
2017-07-03T18:47:34.550Z,15.66
2017-07-03T18:50:03.354Z,15.42
2017-07-03T18:52:31.233Z,15.56
2017-07-03T18:55:00.893Z,15.33
2017-07-03T18:57:29.816Z,15.39
2017-07-03T18:59:58.575Z,15.38
2017-07-03T19:02:27.053Z,15.29
2017-07-03T19:04:57.649Z,15.29
2017-07-03T19:07:26.573Z,14.85
2017-07-03T19:09:58.219Z,14.92
2017-07-03T19:12:26.282Z,14.97
2017-07-03T19:14:54.203Z,14.86
2017-07-03T19:17:22.077Z,14.74
2017-07-03T19:19:49.984Z,14.63
2017-07-03T19:22:17.885Z,14.67
2017-07-03T19:24:45.688Z,14.74
2017-07-03T19:27:13.620Z,14.77
2017-07-03T19:29:41.451Z,14.81
2017-07-03T19:32:12.446Z,14.67
2017-07-03T19:34:40.365Z,14.41
2017-07-03T19:37:08.611Z,14.50
2017-07-03T19:39:36.424Z,14.29
2017-07-03T19:42:05.406Z,14.36
2017-07-03T19:44:33.391Z,14.47
2017-07-03T19:47:02.052Z,14.68
2017-07-03T19:49:30.160Z,14.27
2017-07-03T19:51:57.992Z,14.21
2017-07-03T20:00:18.547Z,14.12
2017-07-03T20:02:47.432Z,14.18
2017-07-03T20:05:15.214Z,14.03
2017-07-03T20:07:43.072Z,14.01
2017-07-03T20:10:10.818Z,13.66
2017-07-03T20:12:38.581Z,13.75
2017-07-03T20:15:06.435Z,13.85
2017-07-03T20:17:34.258Z,13.84
2017-07-03T20:20:02.165Z,13.81
2017-07-03T20:22:29.924Z,13.78
2017-07-03T20:24:57.890Z,13.64
2017-07-03T20:27:25.666Z,13.88
2017-07-03T20:29:53.707Z,13.83
2017-07-03T20:32:21.532Z,13.65
2017-07-03T20:34:49.289Z,13.78
2017-07-03T20:37:17.115Z,13.72
2017-07-03T20:39:44.875Z,13.78
2017-07-03T20:42:12.794Z,13.65
2017-07-03T20:44:40.603Z,13.58
2017-07-03T20:47:08.441Z,13.49
2017-07-03T20:49:36.309Z,13.37
2017-07-03T20:52:04.081Z,13.25
2017-07-03T20:54:31.973Z,13.20
2017-07-03T20:57:00.906Z,13.37
2017-07-03T20:59:29.851Z,13.27
2017-07-03T21:01:57.768Z,13.30
2017-07-03T21:04:25.639Z,13.37
2017-07-03T21:06:53.416Z,13.34
2017-07-03T21:09:21.267Z,13.16
2017-07-03T21:11:49.358Z,13.29
2017-07-03T21:14:17.251Z,13.37
2017-07-03T21:16:45.159Z,13.15
2017-07-03T21:19:12.917Z,13.10
2017-07-03T21:21:41.662Z,12.95
2017-07-03T21:24:31.115Z,12.98
2017-07-03T21:26:58.995Z,12.95
2017-07-03T21:29:26.761Z,12.82
2017-07-03T21:31:54.540Z,13.00
2017-07-03T21:34:22.372Z,12.88
2017-07-03T21:36:50.207Z,12.90
2017-07-03T21:39:18.051Z,12.80
2017-07-03T21:41:45.855Z,12.81
2017-07-03T21:44:14.807Z,12.86
2017-07-03T21:46:42.627Z,12.91
2017-07-03T21:49:10.384Z,12.91
2017-07-03T21:51:38.286Z,12.71
2017-07-03T21:54:06.128Z,12.81
2017-07-03T21:56:34.032Z,12.72
2017-07-03T21:59:01.830Z,12.60
2017-07-03T22:01:30.766Z,12.49
2017-07-03T22:03:58.552Z,12.15
2017-07-03T22:06:26.335Z,12.30
2017-07-03T22:08:54.202Z,12.23
2017-07-03T22:11:22.002Z,12.43
2017-07-03T22:13:49.856Z,12.53
2017-07-03T22:16:17.698Z,12.33
2017-07-03T22:18:46.605Z,12.31
2017-07-03T22:21:14.488Z,12.00
2017-07-03T22:23:42.260Z,12.18
2017-07-03T22:26:10.125Z,12.24
2017-07-03T22:28:37.974Z,12.14
2017-07-03T22:31:06.834Z,12.06
2017-07-03T22:33:34.703Z,12.14
2017-07-03T22:36:02.502Z,12.15
2017-07-03T22:38:30.291Z,11.95
2017-07-03T22:40:58.181Z,12.15
2017-07-03T22:43:26.094Z,12.10
2017-07-03T22:45:53.901Z,12.06
2017-07-03T22:48:21.757Z,11.99
2017-07-03T22:50:49.615Z,11.94
2017-07-03T22:53:17.406Z,11.91
2017-07-03T22:55:45.284Z,12.01
2017-07-03T22:58:13.099Z,11.93
2017-07-03T23:00:40.938Z,11.88
2017-07-03T23:03:08.802Z,11.77
2017-07-03T23:05:36.615Z,11.83
2017-07-03T23:08:04.447Z,11.82
2017-07-03T23:10:32.341Z,11.56
2017-07-03T23:13:00.161Z,11.71
2017-07-03T23:15:27.940Z,11.70
2017-07-03T23:17:55.785Z,11.75
2017-07-03T23:20:23.598Z,11.73
2017-07-03T23:22:51.365Z,11.63
2017-07-03T23:25:19.145Z,11.59
2017-07-03T23:27:46.945Z,11.65
2017-07-03T23:30:14.710Z,11.61
2017-07-03T23:32:42.524Z,11.34
2017-07-03T23:35:10.298Z,11.36
2017-07-03T23:37:38.084Z,11.29
2017-07-03T23:40:05.917Z,11.42
2017-07-03T23:42:33.709Z,11.26
2017-07-03T23:45:01.662Z,11.22
2017-07-03T23:47:29.447Z,11.19
2017-07-03T23:49:57.181Z,11.19
2017-07-03T23:52:25.042Z,11.47
2017-07-03T23:54:52.770Z,11.44
2017-07-03T23:57:20.548Z,11.39
2017-07-03T23:59:48.370Z,11.40
